Latest Weather Observations for Hamilton

IDV60801

Issued at 5:02 pm EDT Sunday 29 March 2015 (issued every 30 minutes, with the page automatically refreshed every 10 minutes)

About weather observations | Map of weather stations | Latest weather observations for VIC | Other Formats
Station Details ID: 090173 Name: HAMILTON AIRPORT Lat: -37.65 Lon: 142.06 Height: 241.1 m
Data from the previous 72 hours. | See also: Recent months at Hamilton
Date/Time
EDT
Temp
°C
App
Temp
°C
Dew
Point
Rel
Hum
%
Delta-T
°C
Wind Press
QNH
hPa
Press
MSL
hPa
Rain
since 9 am
mm
Dir
 
Spd
km/h
Gust
km/h
Spd
kts
Gust
kts
29/05:00pm 21.4 17.5 6.9 39 7.5 NW 17 24 9 13 1021.2 1020.7 0.0
29/04:30pm 21.9 18.4 7.3 39 7.6 WNW 15 24 8 13 1021.1 1020.6 0.0
29/04:00pm 22.0 19.2 7.0 38 7.8 W 11 22 6 12 1021.2 1020.7 0.0
29/03:30pm 21.2 18.1 7.1 40 7.3 WSW 13 24 7 13 1021.3 1020.8 0.0
29/03:00pm 21.0 17.2 7.6 42 7.0 W 17 24 9 13 1021.7 1021.2 0.0
29/02:30pm 20.7 18.2 8.0 44 6.7 NW 11 24 6 13 1021.9 1021.4 0.0
29/02:00pm 19.9 17.3 7.9 46 6.2 WSW 11 19 6 10 1022.3 1021.8 0.0
29/01:30pm 19.8 16.8 7.5 45 6.4 W 13 20 7 11 1022.5 1022.0 0.0
29/01:00pm 19.6 16.8 8.6 49 5.8 WNW 13 20 7 11 1022.7 1022.2 0.0
29/12:30pm 18.9 16.0 8.0 49 5.6 W 13 20 7 11 1022.8 1022.3 0.0
29/12:00pm 18.0 14.2 7.7 51 5.3 WSW 17 24 9 13 1023.0 1022.5 0.0
29/11:30am 17.6 14.3 8.2 54 4.9 WNW 15 20 8 11 1023.3 1022.9 0.0
29/11:00am 16.6 13.8 8.6 59 4.1 WNW 13 19 7 10 1023.5 1023.1 0.0
29/10:30am 15.3 13.6 9.9 70 2.8 NW 9 13 5 7 1023.5 1023.1 0.0
29/10:00am 13.9 11.3 9.5 75 2.3 NNW 13 17 7 9 1023.4 1023.0 0.0
29/09:30am 12.2 9.6 9.4 83 1.4 NNW 13 17 7 9 1023.1 1022.6 0.0
29/09:00am 10.5 9.1 9.4 93 0.6 N 7 9 4 5 1022.9 1022.4 0.2
29/08:30am 8.5 6.7 7.9 96 0.3 N 7 9 4 5 1022.7 1022.2 0.2
29/08:00am 6.8 4.5 5.9 94 0.4 NNW 7 9 4 5 1022.6 1022.1 0.2
29/07:30am 7.5 4.7 6.8 95 0.3 WSW 11 15 6 8 1022.7 1022.2 0.2
29/07:00am 7.6 5.5 6.7 94 0.4 WSW 7 9 4 5 1022.3 1021.8 0.0
29/06:30am 7.9 5.9 7.0 94 0.4 WSW 7 9 4 5 1022.0 1021.5 0.0
29/06:00am 7.6 4.8 6.9 95 0.3 WSW 11 13 6 7 1021.8 1021.3 0.0
29/05:30am 7.5 4.3 6.8 95 0.3 NNW 13 15 7 8 1021.1 1020.6 0.0
29/05:00am 7.8 4.3 7.2 96 0.3 N 15 17 8 9 1020.9 1020.4 0.0
29/04:30am 7.4 4.6 6.8 96 0.3 N 11 13 6 7 1020.8 1020.3 0.0
29/04:00am 7.5 5.5 6.9 96 0.3 NNW 7 7 4 4 1020.8 1020.3 0.0
29/03:58am 7.4 5.5 6.8 96 0.3 NW 6 7 3 4 1020.8 1020.3 0.0
29/03:39am 7.5 5.6 6.8 95 0.3 N 6 6 3 3 1020.8 1020.3 0.0
29/03:33am 7.7 5.9 7.1 96 0.3 N 6 7 3 4 1020.8 1020.3 0.0
29/03:30am 7.7 5.9 7.1 96 0.3 N 6 7 3 4 1020.8 1020.3 0.0
29/03:11am 7.5 5.4 6.8 95 0.3 N 7 9 4 5 1020.9 1020.4 0.0
29/03:00am 7.3 4.8 6.6 95 0.3 N 9 9 5 5 1020.9 1020.4 0.0
29/02:30am 7.8 5.4 6.9 94 0.4 N 9 11 5 6 1021.1 1020.6 0.0
29/02:00am 8.6 6.3 7.4 92 0.6 N 9 11 5 6 1021.5 1021.0 0.0
29/01:30am 9.4 7.1 7.5 88 0.9 N 9 9 5 5 1021.5 1021.0 0.0
29/01:00am 10.0 8.2 7.9 87 1.0 N 7 9 4 5 1021.7 1021.2 0.0
29/12:30am 10.1 8.0 8.2 88 0.9 NNE 9 9 5 5 1021.9 1021.4 0.0
29/12:00am 10.0 7.8 7.8 86 1.1 NNE 9 11 5 6 1022.2 1021.7 0.0
 
Date/Time
EDT
Temp
°C
App
Temp
°C
Dew
Point
Rel
Hum
%
Delta-T
°C
Wind Press
QNH
hPa
Press
MSL
hPa
Rain
since 9 am
mm
Dir
 
Spd
km/h
Gust
km/h
Spd
kts
Gust
kts
28/11:30pm 11.4 9.8 8.6 83 1.4 NNE 7 7 4 4 1022.4 1021.9 0.0
28/11:00pm 11.5 10.0 8.5 82 1.5 N 6 7 3 4 1022.5 1022.0 0.0
28/10:30pm 11.7 11.4 8.7 82 1.5 CALM 0 0 0 0 1022.8 1022.3 0.0
28/10:00pm 12.4 12.1 8.5 77 2.0 CALM 0 0 0 0 1022.8 1022.3 0.0
28/09:30pm 13.0 11.6 8.7 75 2.2 NE 6 6 3 3 1022.7 1022.2 0.0
28/09:00pm 13.2 12.9 8.7 74 2.3 CALM 0 0 0 0 1022.6 1022.1 0.0
28/08:30pm 14.1 12.7 8.7 70 2.8 WNW 6 6 3 3 1022.5 1022.0 0.0
28/08:00pm 14.3 12.7 8.9 70 2.8 W 7 9 4 5 1022.4 1021.9 0.0
28/07:30pm 14.6 13.1 8.5 67 3.1 W 6 7 3 4 1022.3 1021.8 0.0
28/07:00pm 14.9 13.2 8.4 65 3.3 W 7 9 4 5 1022.3 1021.8 0.0
28/06:30pm 15.2 13.5 8.4 64 3.5 WSW 7 9 4 5 1022.1 1021.6 0.0
28/06:00pm 15.4 13.0 8.6 64 3.5 W 11 13 6 7 1022.4 1021.9 0.0
28/05:30pm 15.3 12.8 8.3 63 3.6 NW 11 15 6 8 1022.5 1022.0 0.0
28/05:00pm 15.2 12.7 8.2 63 3.5 NW 11 15 6 8 1022.9 1022.4 0.0
28/04:30pm 15.4 11.8 8.2 62 3.7 WNW 17 20 9 11 1023.0 1022.5 0.0
28/04:00pm 15.5 12.7 8.7 64 3.5 NW 13 15 7 8 1023.3 1022.9 0.0
28/03:30pm 15.4 12.9 8.4 63 3.6 NW 11 17 6 9 1023.3 1022.9 0.0
28/03:00pm 14.8 12.3 8.3 65 3.3 W 11 20 6 11 1023.7 1023.3 0.0
28/02:30pm 14.3 11.9 8.7 69 2.9 WNW 11 19 6 10 1024.3 1023.8 0.0
28/02:00pm 13.7 10.5 8.5 71 2.6 NW 15 20 8 11 1024.8 1024.3 0.0
28/01:30pm 13.5 10.3 8.6 72 2.5 NW 15 19 8 10 1025.2 1024.7 0.0
28/01:00pm 13.4 11.1 8.9 74 2.3 WNW 11 17 6 9 1025.4 1024.9 0.0
28/12:30pm 12.9 10.7 9.2 78 1.9 W 11 15 6 8 1025.7 1025.2 0.0
28/12:00pm 12.8 9.9 8.3 74 2.2 NNW 13 17 7 9 1026.0 1025.5 0.0
28/11:30am 12.4 8.8 8.5 77 2.0 NW 17 24 9 13 1026.3 1025.8 0.0
28/11:00am 12.9 10.4 8.2 73 2.3 WNW 11 15 6 8 1026.4 1025.9 0.0
28/10:30am 11.9 9.6 8.9 82 1.5 NW 11 15 6 8 1026.5 1026.0 0.0
28/10:00am 11.7 9.5 9.4 86 1.2 NW 11 15 6 8 1026.7 1026.2 0.0
28/09:30am 11.1 8.5 9.2 88 1.0 WNW 13 17 7 9 1026.7 1026.2 0.0
28/09:11am 11.1 8.6 9.7 91 0.7 WNW 13 15 7 8 1026.5 1026.0 0.0
28/09:00am 11.0 9.3 9.9 93 0.6 NW 9 11 5 6 1026.4 1025.9 0.8
28/08:48am 11.0 9.4 10.1 94 0.5 WNW 9 11 5 6 1026.4 1025.9 0.8
28/08:30am 10.8 9.5 9.9 94 0.5 WNW 7 9 4 5 1026.4 1025.9 0.8
28/08:00am 10.6 9.2 9.7 94 0.5 WNW 7 9 4 5 1025.9 1025.4 0.8
28/07:35am 10.6 9.3 9.8 95 0.4 WNW 7 7 4 4 1025.8 1025.3 0.8
28/07:30am 10.7 9.4 9.9 95 0.4 WNW 7 9 4 5 1025.7 1025.2 0.8
28/07:00am 10.6 10.6 9.8 95 0.4 CALM 0 0 0 0 1025.4 1024.9 0.8
28/06:30am 10.5 9.3 9.7 95 0.4 NE 6 6 3 3 1025.2 1024.7 0.8
28/06:00am 10.5 10.1 9.7 95 0.4 N 2 6 1 3 1025.2 1024.7 0.8
28/05:43am 10.6 9.5 9.8 95 0.4 N 6 6 3 3 1025.3 1024.8 0.8
28/05:30am 10.5 9.1 9.7 95 0.4 N 7 9 4 5 1025.2 1024.7 0.8
28/05:08am 10.6 10.6 9.8 95 0.4 CALM 0 0 0 0 1025.3 1024.8 0.8
28/05:00am 10.5 10.5 9.7 95 0.4 CALM 0 0 0 0 1025.3 1024.8 0.8
28/04:53am 10.5 10.4 9.6 94 0.5 CALM 0 0 0 0 1025.3 1024.8 0.6
28/04:50am 10.5 10.4 9.6 94 0.5 CALM 0 0 0 0 1025.4 1024.9 0.6
28/04:30am 10.5 10.4 9.6 94 0.5 CALM 0 0 0 0 1025.3 1024.8 0.6
28/04:16am 10.5 10.4 9.6 94 0.5 CALM 0 0 0 0 1025.4 1024.9 0.6
28/04:15am 10.5 10.4 9.6 94 0.5 CALM 0 0 0 0 1025.4 1024.9 0.6
28/04:06am 10.5 10.4 9.6 94 0.5 CALM 0 0 0 0 1025.3 1024.8 0.6
28/04:00am 10.4 10.3 9.5 94 0.5 CALM 0 0 0 0 1025.3 1024.8 0.6
28/03:42am 10.5 10.4 9.6 94 0.5 CALM 0 0 0 0 1025.4 1024.9 0.6
28/03:41am 10.5 10.4 9.6 94 0.5 CALM 0 0 0 0 1025.4 1024.9 0.6
28/03:33am 10.5 10.1 9.6 94 0.5 SE 2 6 1 3 1025.5 1025.0 0.6
28/03:30am 10.5 9.7 9.6 94 0.5 SE 4 6 2 3 1025.5 1025.0 0.6
28/03:06am 10.7 9.5 9.6 93 0.6 SSE 6 7 3 4 1025.7 1025.2 0.4
28/03:03am 10.7 9.5 9.6 93 0.6 SSE 6 7 3 4 1025.7 1025.2 0.4
28/03:00am 10.7 9.5 9.5 92 0.6 SSE 6 7 3 4 1025.8 1025.3 0.4
28/02:30am 10.7 8.9 9.3 91 0.7 S 9 9 5 5 1025.9 1025.4 0.4
28/02:00am 10.8 8.9 9.2 90 0.8 SSW 9 11 5 6 1026.1 1025.6 0.4
28/01:30am 10.8 9.3 9.2 90 0.8 SSW 7 9 4 5 1026.0 1025.5 0.4
28/01:00am 10.6 9.3 9.2 91 0.7 SSE 6 7 3 4 1026.0 1025.5 0.4
28/12:30am 10.6 10.4 9.0 90 0.8 CALM 0 0 0 0 1026.3 1025.8 0.4
28/12:00am 10.7 10.5 9.1 90 0.8 CALM 0 0 0 0 1026.3 1025.8 0.4
 
Date/Time
EDT
Temp
°C
App
Temp
°C
Dew
Point
Rel
Hum
%
Delta-T
°C
Wind Press
QNH
hPa
Press
MSL
hPa
Rain
since 9 am
mm
Dir
 
Spd
km/h
Gust
km/h
Spd
kts
Gust
kts
27/11:30pm 10.6 10.0 9.0 90 0.8 ESE 2 6 1 3 1026.5 1026.0 0.4
27/11:00pm 10.3 8.6 8.4 88 0.9 SE 7 9 4 5 1026.6 1026.1 0.4
27/10:30pm 11.0 9.0 8.6 85 1.2 SE 9 13 5 7 1026.7 1026.2 0.4
27/10:00pm 11.1 9.1 8.5 84 1.3 S 9 11 5 6 1026.7 1026.2 0.4
27/09:30pm 11.2 8.4 8.4 83 1.4 S 13 15 7 8 1026.5 1026.0 0.4
27/09:00pm 12.1 9.7 8.6 79 1.7 S 11 13 6 7 1026.4 1025.9 0.4
27/08:30pm 12.2 9.7 8.3 77 2.0 S 11 17 6 9 1026.2 1025.7 0.4
27/08:00pm 12.4 9.1 8.1 75 2.1 S 15 19 8 10 1025.9 1025.4 0.4
27/07:30pm 12.6 9.5 8.7 77 2.0 SSW 15 19 8 10 1025.7 1025.2 0.4
27/07:00pm 12.9 9.9 9.2 78 1.9 S 15 17 8 9 1025.4 1024.9 0.4
27/06:30pm 12.7 10.1 9.3 80 1.7 S 13 20 7 11 1025.4 1024.9 0.4
27/06:00pm 11.8 8.7 10.2 90 0.8 SSW 17 24 9 13 1025.5 1025.0 0.4
27/05:30pm 12.4 8.7 9.4 82 1.5 SSW 19 28 10 15 1025.2 1024.7 0.4
27/05:17pm 12.5 10.0 10.9 90 0.8 SSW 15 19 8 10 1025.2 1024.7 0.4
27/05:07pm 12.1 8.2 10.7 91 0.7 SSW 22 30 12 16 1025.2 1024.7 0.4
27/05:00pm 12.3 8.1 11.0 92 0.7 SSW 24 30 13 16 1025.2 1024.7 0.4
27/04:57pm 12.6 8.8 11.2 91 0.7 SSW 22 30 12 16 1025.2 1024.7 0.4
27/04:30pm 13.1 10.1 10.6 85 1.3 S 17 24 9 13 1025.1 1024.6 0.4
27/04:23pm 13.1 10.2 11.0 87 1.1 S 17 24 9 13 1025.2 1024.7 0.4
27/04:21pm 12.9 9.9 10.8 87 1.1 S 17 24 9 13 1025.2 1024.7 0.4
27/04:08pm 13.0 10.1 11.1 88 1.0 S 17 24 9 13 1025.1 1024.6 0.4
27/04:00pm 12.9 10.8 11.1 89 1.0 S 13 17 7 9 1025.2 1024.7 0.4
27/03:30pm 13.2 9.6 10.6 84 1.4 SSW 20 28 11 15 1025.2 1024.7 0.4
27/03:00pm 15.1 11.3 9.0 67 3.1 WSW 19 24 10 13 1025.3 1024.8 0.4
27/02:30pm 13.8 9.9 8.8 72 2.6 SSW 19 22 10 12 1025.6 1025.1 0.4
27/02:00pm 14.4 10.8 8.4 67 3.0 S 17 24 9 13 1025.8 1025.3 0.4
27/01:30pm 14.1 9.6 8.5 69 2.8 SW 22 30 12 16 1026.1 1025.6 0.4
27/01:00pm 14.3 8.9 7.8 65 3.2 SW 26 33 14 18 1026.5 1026.0 0.4
27/12:30pm 13.8 9.1 7.8 67 3.0 SSW 22 32 12 17 1026.6 1026.1 0.4
27/12:00pm 13.1 8.6 8.4 73 2.4 SSW 22 32 12 17 1026.7 1026.2 0.4
27/11:30am 12.5 7.5 8.2 75 2.2 SW 24 32 13 17 1026.6 1026.1 0.4
27/11:00am 12.6 8.2 10.3 86 1.2 SW 24 35 13 19 1026.5 1026.0 0.4
27/10:30am 12.0 7.7 10.6 91 0.7 SW 24 30 13 16 1026.4 1025.9 0.4
27/10:20am 11.0 5.5 9.3 89 0.9 SW 28 35 15 19 1026.3 1025.8 0.4
27/10:02am 10.6 5.6 9.5 93 0.6 SW 26 33 14 18 1026.2 1025.7 0.2
27/10:00am 10.6 5.6 9.7 94 0.5 SW 26 33 14 18 1026.2 1025.7 0.2
27/09:39am 10.7 6.5 9.8 94 0.5 SW 22 28 12 15 1026.1 1025.6 0.2
27/09:30am 10.6 6.4 9.7 94 0.5 SW 22 30 12 16 1026.0 1025.5 0.2
27/09:22am 10.3 6.0 9.5 95 0.4 SW 22 30 12 16 1026.0 1025.5 0.2
27/09:00am 10.2 6.9 9.6 96 0.3 WSW 17 22 9 12 1025.9 1025.4 12.8
27/08:41am 10.3 7.0 9.5 95 0.4 WSW 17 22 9 12 1025.6 1025.1 12.2
27/08:30am 10.1 6.8 9.5 96 0.3 WSW 17 20 9 11 1025.5 1025.0 12.2
27/08:20am 10.1 7.2 9.5 96 0.3 SW 15 22 8 12 1025.5 1025.0 12.0
27/08:00am 10.0 7.0 9.4 96 0.3 SW 15 19 8 10 1025.2 1024.7 11.8
27/07:34am 10.0 6.2 9.2 95 0.4 WSW 19 24 10 13 1024.8 1024.3 11.4
27/07:30am 9.9 6.1 9.1 95 0.4 WSW 19 24 10 13 1024.7 1024.2 11.4
27/07:27am 9.9 6.1 9.1 95 0.4 WSW 19 24 10 13 1024.6 1024.1 11.4
27/07:00am 9.9 6.0 9.3 96 0.3 WSW 20 28 11 15 1024.5 1024.0 11.4
27/06:33am 10.0 6.6 9.2 95 0.4 WSW 17 24 9 13 1024.3 1023.8 11.2
27/06:31am 10.0 6.6 9.2 95 0.4 WSW 17 24 9 13 1024.3 1023.8 11.2
27/06:30am 10.0 6.2 9.2 95 0.4 WSW 19 24 10 13 1024.3 1023.8 11.2
27/06:17am 10.1 6.7 9.3 95 0.4 WSW 17 22 9 12 1024.1 1023.6 11.2
27/06:11am 10.1 6.4 9.3 95 0.4 WSW 19 24 10 13 1024.0 1023.5 11.0
27/06:00am 10.0 6.2 9.1 94 0.4 SW 19 26 10 14 1024.1 1023.6 11.0
27/05:59am 10.0 6.0 9.1 94 0.5 SW 20 26 11 14 1024.0 1023.5 11.0
27/05:49am 9.9 5.5 9.0 94 0.4 SW 22 30 12 16 1024.0 1023.5 11.0
27/05:30am 9.9 5.9 9.0 94 0.4 WSW 20 30 11 16 1024.0 1023.5 10.8
27/05:13am 10.3 7.7 9.5 95 0.4 WSW 13 19 7 10 1023.7 1023.3 10.4
27/05:00am 10.3 7.4 9.5 95 0.4 WSW 15 19 8 10 1023.6 1023.2 10.4
27/04:30am 10.1 6.2 9.3 95 0.4 WSW 20 28 11 15 1023.6 1023.2 10.2
27/04:26am 10.1 6.2 9.3 95 0.4 WSW 20 28 11 15 1023.5 1023.1 10.2
27/04:08am 10.2 6.3 9.4 95 0.4 WSW 20 26 11 14 1023.4 1023.0 10.2
27/04:04am 10.2 6.3 9.4 95 0.4 WSW 20 24 11 13 1023.4 1023.0 10.2
27/04:00am 10.1 6.2 9.3 95 0.4 W 20 26 11 14 1023.4 1023.0 10.2
27/03:49am 10.1 6.4 9.3 95 0.4 W 19 24 10 13 1023.4 1023.0 10.2
27/03:30am 10.1 6.4 9.3 95 0.4 W 19 22 10 12 1023.3 1022.9 10.2
27/03:01am 10.2 6.9 9.4 95 0.4 W 17 22 9 12 1023.3 1022.9 10.2
27/03:00am 10.2 6.9 9.4 95 0.4 W 17 22 9 12 1023.3 1022.9 10.2
27/02:53am 10.1 6.4 9.3 95 0.4 W 19 22 10 12 1023.3 1022.9 10.2
27/02:30am 10.2 6.9 9.4 95 0.4 W 17 22 9 12 1023.2 1022.7 10.2
27/02:00am 10.5 7.2 9.7 95 0.4 W 17 22 9 12 1023.2 1022.7 10.2
27/01:30am 10.4 6.7 9.6 95 0.4 WSW 19 24 10 13 1023.0 1022.5 10.2
27/01:00am 10.5 7.2 9.7 95 0.4 WSW 17 24 9 13 1023.1 1022.6 10.2
27/12:30am 10.6 6.8 9.8 95 0.4 WSW 20 28 11 15 1023.1 1022.6 10.2
27/12:00am 10.6 7.0 9.8 95 0.4 WSW 19 28 10 15 1023.0 1022.5 10.0
 
Date/Time
EDT
Temp
°C
App
Temp
°C
Dew
Point
Rel
Hum
%
Delta-T
°C
Wind Press
QNH
hPa
Press
MSL
hPa
Rain
since 9 am
mm
Dir
 
Spd
km/h
Gust
km/h
Spd
kts
Gust
kts
26/11:30pm 10.7 6.9 9.9 95 0.4 WSW 20 26 11 14 1022.9 1022.4 10.0
26/11:23pm 10.7 6.9 9.9 95 0.4 W 20 26 11 14 1022.9 1022.4 10.0
26/11:10pm 10.8 7.2 10.0 95 0.4 WSW 19 26 10 14 1022.9 1022.4 10.0
26/11:01pm 10.8 7.1 10.0 95 0.4 WSW 20 26 11 14 1022.8 1022.3 10.0
26/11:00pm 10.8 7.1 10.0 95 0.4 WSW 20 26 11 14 1022.8 1022.3 10.0
26/10:59pm 10.8 7.0 9.9 94 0.5 WSW 20 24 11 13 1022.8 1022.3 10.0
26/10:30pm 10.8 6.3 10.0 95 0.4 WSW 24 37 13 20 1022.7 1022.2 9.8
26/10:19pm 10.9 7.4 10.3 96 0.3 SW 19 24 10 13 1022.6 1022.1 9.8
26/10:00pm 10.9 7.2 10.1 95 0.4 SW 20 28 11 15 1022.5 1022.0 9.4
26/09:30pm 10.9 5.3 10.0 94 0.5 WSW 30 39 16 21 1021.9 1021.4 3.8
26/09:19pm 10.9 6.0 9.8 93 0.6 WSW 26 33 14 18 1021.8 1021.3 2.8
26/09:02pm 10.9 5.6 10.0 94 0.5 WSW 28 37 15 20 1021.7 1021.2 2.4
26/09:00pm 10.9 5.6 10.0 94 0.5 WSW 28 37 15 20 1021.7 1021.2 2.4
26/08:41pm 10.9 5.6 10.0 94 0.5 W 28 35 15 19 1021.4 1020.9 2.0
26/08:33pm 10.9 5.6 9.8 93 0.6 W 28 41 15 22 1021.2 1020.7 2.0
26/08:30pm 10.9 5.6 9.8 93 0.6 W 28 41 15 22 1021.1 1020.6 2.0
26/08:16pm 10.9 5.6 9.8 93 0.6 W 28 37 15 20 1021.0 1020.5 2.0
26/08:03pm 11.0 4.9 9.9 93 0.6 W 32 44 17 24 1020.9 1020.4 1.8
26/08:00pm 11.0 4.9 9.8 92 0.6 W 32 44 17 24 1020.9 1020.4 1.8
26/07:52pm 11.0 4.7 9.8 92 0.6 W 33 46 18 25 1020.7 1020.2 1.8
26/07:30pm 11.0 4.3 9.6 91 0.7 W 35 43 19 23 1020.3 1019.8 1.8
26/07:21pm 11.0 4.3 9.6 91 0.7 W 35 46 19 25 1020.2 1019.7 1.8
26/07:00pm 10.9 4.2 9.7 92 0.6 W 35 46 19 25 1020.0 1019.5 1.8
26/06:41pm 11.1 3.6 9.5 90 0.8 W 39 54 21 29 1019.6 1019.0 1.6
26/06:30pm 11.2 3.7 9.5 89 0.9 W 39 57 21 31 1019.6 1019.0 1.6
26/06:00pm 10.9 3.4 9.3 90 0.8 W 39 57 21 31 1019.2 1018.7 1.6
26/05:45pm 10.9 3.8 9.5 91 0.7 W 37 56 20 30 1019.2 1018.7 1.6
26/05:42pm 10.8 2.9 9.4 91 0.7 W 41 56 22 30 1019.0 1018.5 1.6
26/05:30pm 10.9 3.5 9.7 92 0.6 W 39 56 21 30 1019.1 1018.6 1.6
26/05:07pm 10.9 3.8 9.7 92 0.6 W 37 56 20 30 1019.0 1018.5 1.6
26/05:04pm 11.0 3.9 9.6 91 0.7 W 37 56 20 30 1019.0 1018.5 1.6

Other Formats:

Comma delimited format used in spreadsheet applications
http://www.bom.gov.au/fwo/IDV60801/IDV60801.94829.axf

JavaScript Object Notation format (JSON) in row-major order
http://www.bom.gov.au/fwo/IDV60801/IDV60801.94829.json